Terminal Aerodrome Forecast
Issued by NWS Blacksburg, VA

Current Version | Previous Version | Text Only | Print | Product List | Glossary Off
Versions: 1 2 3 4 5 6 7 8 9 10 11 12 13 14 15 16 17 18 19 20 21 22 23 24 25 26 27 28 29 30 31 32 33 34 35 36 37

000
FTUS41 KRNK 161130
TAFBLF
TAF
KBLF 161130Z 1612/1712 26004KT P6SM BKN003 BKN020
      TEMPO 1612/1614 SCT005 BKN050
     FM161400 28005KT P6SM SCT015 BKN028
     FM162000 30007KT P6SM BKN035
     FM170100 32003KT P6SM SCT035 BKN050
     FM170900 09004KT 2SM BR BKN025=

USA.gov is the U.S. government's official web portal to all federal, state and local government web resources and services.